createdAt,value
2022-10-05T00:00:55.132Z,10.10
2022-10-05T00:03:25.377Z,10.20
2022-10-05T00:05:53.264Z,10.10
2022-10-05T00:08:23.933Z,10.10
2022-10-05T00:10:52.405Z,10.10
2022-10-05T00:13:24.500Z,10.00
2022-10-05T00:15:58.496Z,10.00
2022-10-05T00:18:28.164Z,10.00
2022-10-05T00:20:56.252Z,9.90
2022-10-05T00:23:28.492Z,9.90
2022-10-05T00:25:57.841Z,9.80
2022-10-05T00:28:30.222Z,9.60
2022-10-05T00:30:58.973Z,9.50
2022-10-05T00:33:27.910Z,9.40
2022-10-05T00:35:56.568Z,9.40
2022-10-05T00:38:24.414Z,9.30
2022-10-05T00:41:05.161Z,9.20
2022-10-05T00:43:57.700Z,9.30
2022-10-05T00:46:29.263Z,9.30
2022-10-05T00:49:06.421Z,9.20
2022-10-05T00:51:37.175Z,9.10
2022-10-05T00:54:18.486Z,9.00
2022-10-05T00:57:02.839Z,8.80
2022-10-05T00:59:44.121Z,8.70
2022-10-05T01:02:17.013Z,8.60
2022-10-05T01:04:50.385Z,8.60
2022-10-05T01:07:28.308Z,8.70
2022-10-05T01:10:05.317Z,8.70
2022-10-05T01:12:39.113Z,8.70
2022-10-05T01:15:13.525Z,8.70
2022-10-05T01:17:47.262Z,8.70
2022-10-05T01:20:27.233Z,8.70
2022-10-05T01:23:27.732Z,8.80
2022-10-05T01:26:08.784Z,8.80
2022-10-05T01:28:41.988Z,8.80
2022-10-05T01:31:19.916Z,8.70
2022-10-05T01:33:53.254Z,8.70
2022-10-05T01:36:27.449Z,8.70
2022-10-05T01:39:03.800Z,8.70
2022-10-05T01:41:38.000Z,8.70
2022-10-05T01:44:11.655Z,8.70
2022-10-05T01:46:44.955Z,8.70
2022-10-05T01:49:33.430Z,8.70
2022-10-05T01:52:13.476Z,8.70
2022-10-05T01:54:48.260Z,8.70
2022-10-05T01:57:26.098Z,8.70
2022-10-05T02:00:07.592Z,8.70
2022-10-05T02:02:39.161Z,8.80
2022-10-05T02:05:12.052Z,8.80
2022-10-05T02:07:43.457Z,8.80
2022-10-05T02:10:19.848Z,8.80
2022-10-05T02:12:52.361Z,8.80
2022-10-05T02:15:30.082Z,8.80
2022-10-05T02:18:07.521Z,8.60
2022-10-05T02:20:39.146Z,8.50
2022-10-05T02:23:11.982Z,8.30
2022-10-05T02:25:42.682Z,8.10
2022-10-05T02:28:14.206Z,8.10
2022-10-05T02:30:49.484Z,8.10
2022-10-05T02:33:24.382Z,8.10
2022-10-05T02:35:52.180Z,8.10
2022-10-05T02:38:29.051Z,8.10
2022-10-05T02:41:03.751Z,8.10
2022-10-05T02:43:40.094Z,8.10
2022-10-05T02:46:20.315Z,8.20
2022-10-05T02:48:58.794Z,8.20
2022-10-05T02:51:33.921Z,8.30
2022-10-05T02:54:07.637Z,8.30
2022-10-05T02:56:42.906Z,8.30
2022-10-05T02:59:16.642Z,8.30
2022-10-05T03:01:52.390Z,8.30
2022-10-05T03:04:30.475Z,8.30
2022-10-05T03:07:05.786Z,8.40
2022-10-05T03:09:42.248Z,8.50
2022-10-05T03:12:21.972Z,8.50
2022-10-05T03:15:01.692Z,8.50
2022-10-05T03:17:38.848Z,8.60
2022-10-05T03:20:21.824Z,8.50
2022-10-05T03:22:52.140Z,8.40
2022-10-05T03:25:41.833Z,8.40
2022-10-05T03:28:16.628Z,8.40
2022-10-05T03:30:52.387Z,8.60
2022-10-05T03:33:31.604Z,8.70
2022-10-05T03:36:07.509Z,8.80
2022-10-05T03:38:42.509Z,9.00
2022-10-05T03:41:17.548Z,9.10
2022-10-05T03:44:12.447Z,9.10
2022-10-05T03:46:50.966Z,9.30
2022-10-05T03:49:29.472Z,9.30
2022-10-05T03:52:05.002Z,9.40
2022-10-05T03:54:37.621Z,9.40
2022-10-05T03:57:11.405Z,9.40
2022-10-05T03:59:45.782Z,9.30
2022-10-05T04:02:20.897Z,9.30
2022-10-05T04:04:54.295Z,9.30
2022-10-05T04:07:40.514Z,9.30
2022-10-05T04:10:16.502Z,9.20
2022-10-05T04:12:50.260Z,9.20
2022-10-05T04:15:24.625Z,9.20
2022-10-05T04:17:57.239Z,9.20
2022-10-05T04:20:32.065Z,9.20
2022-10-05T04:23:06.212Z,9.20
2022-10-05T04:25:42.104Z,9.20
2022-10-05T04:28:15.839Z,9.20
2022-10-05T04:30:46.882Z,9.20
2022-10-05T04:33:16.004Z,9.20
2022-10-05T04:36:10.278Z,9.20
2022-10-05T04:38:53.605Z,9.20
2022-10-05T04:41:49.833Z,9.20
2022-10-05T04:44:43.818Z,9.20
2022-10-05T04:47:41.381Z,9.10
2022-10-05T04:50:22.116Z,9.10
2022-10-05T04:52:59.607Z,9.00
2022-10-05T04:55:37.281Z,9.00
2022-10-05T04:58:15.543Z,8.90
2022-10-05T05:00:53.497Z,8.90
2022-10-05T05:03:49.742Z,8.90
2022-10-05T05:06:27.696Z,8.90
2022-10-05T05:09:18.446Z,8.90
2022-10-05T05:11:57.924Z,8.80
2022-10-05T05:15:00.801Z,8.70
2022-10-05T05:17:42.020Z,8.80
2022-10-05T05:20:22.011Z,8.80
2022-10-05T05:22:54.145Z,8.70
2022-10-05T05:25:34.700Z,8.80
2022-10-05T05:28:15.001Z,8.80
2022-10-05T05:30:49.001Z,8.80
2022-10-05T05:33:23.144Z,8.80
2022-10-05T05:36:23.179Z,8.80
2022-10-05T05:38:59.308Z,8.80
2022-10-05T05:41:36.608Z,8.80
2022-10-05T05:44:13.607Z,8.80
2022-10-05T05:47:03.148Z,8.80
2022-10-05T05:49:50.693Z,8.80
2022-10-05T05:52:25.281Z,8.90
2022-10-05T05:54:59.239Z,8.90
2022-10-05T05:57:33.527Z,8.90
2022-10-05T06:00:08.874Z,8.90
2022-10-05T06:02:41.385Z,8.90
2022-10-05T06:05:25.817Z,8.90
2022-10-05T06:07:55.937Z,8.90
2022-10-05T06:10:33.621Z,9.00
2022-10-05T06:13:07.821Z,9.00
2022-10-05T06:15:41.128Z,9.00
2022-10-05T06:18:13.300Z,8.90
2022-10-05T06:20:45.397Z,8.90
2022-10-05T06:23:17.373Z,8.90
2022-10-05T06:25:56.252Z,8.80
2022-10-05T06:28:27.000Z,8.90
2022-10-05T06:31:04.906Z,8.90
2022-10-05T06:33:46.680Z,8.90
2022-10-05T06:36:24.651Z,9.00
2022-10-05T06:39:27.593Z,9.00
2022-10-05T06:42:10.762Z,9.10
2022-10-05T06:44:48.513Z,9.20
2022-10-05T06:47:24.577Z,9.30
2022-10-05T06:49:57.725Z,9.40
2022-10-05T06:52:32.402Z,9.50
2022-10-05T06:55:16.886Z,9.50
2022-10-05T06:57:55.898Z,9.70
2022-10-05T07:00:28.501Z,9.70
2022-10-05T07:03:04.484Z,9.70
2022-10-05T07:05:56.146Z,9.80
2022-10-05T07:08:37.484Z,9.80
2022-10-05T07:11:13.613Z,9.80
2022-10-05T07:14:01.047Z,9.80
2022-10-05T07:16:42.578Z,9.80
2022-10-05T07:19:23.131Z,10.00
2022-10-05T07:22:01.534Z,10.00
2022-10-05T07:24:33.363Z,10.00
2022-10-05T07:27:12.569Z,10.10
2022-10-05T07:29:48.917Z,10.00
2022-10-05T07:32:29.925Z,10.10
2022-10-05T07:35:04.904Z,10.10
2022-10-05T07:37:57.890Z,10.20
2022-10-05T07:40:30.647Z,10.30
2022-10-05T07:43:12.023Z,10.40
2022-10-05T07:45:47.111Z,10.40
2022-10-05T07:48:21.380Z,10.50
2022-10-05T07:51:00.852Z,10.50
2022-10-05T07:53:35.129Z,10.60
2022-10-05T07:56:07.585Z,10.60
2022-10-05T07:58:41.516Z,10.70
2022-10-05T08:01:14.257Z,10.60
2022-10-05T08:03:54.803Z,10.60
2022-10-05T08:06:35.795Z,10.60
2022-10-05T08:09:10.597Z,10.60
2022-10-05T08:11:48.025Z,10.70
2022-10-05T08:14:25.194Z,10.70
2022-10-05T08:16:57.481Z,10.70
2022-10-05T08:19:33.081Z,10.80
2022-10-05T08:22:05.264Z,10.90
2022-10-05T08:24:42.267Z,10.90
2022-10-05T08:27:17.007Z,11.00
2022-10-05T08:29:53.685Z,11.10
2022-10-05T08:32:25.870Z,11.20
2022-10-05T08:34:59.143Z,11.20
2022-10-05T08:37:30.564Z,11.30
2022-10-05T08:40:21.333Z,11.40
2022-10-05T08:43:08.777Z,11.40
2022-10-05T08:46:01.115Z,11.50
2022-10-05T08:49:05.496Z,11.60
2022-10-05T08:51:48.280Z,11.70
2022-10-05T08:54:39.185Z,11.80
2022-10-05T08:57:31.619Z,11.80
2022-10-05T09:00:14.991Z,11.90
2022-10-05T09:03:07.993Z,12.10
2022-10-05T09:06:14.285Z,12.10
2022-10-05T09:09:09.079Z,12.30
2022-10-05T09:11:38.957Z,12.50
2022-10-05T09:14:20.513Z,12.60
2022-10-05T09:17:11.390Z,12.80
2022-10-05T09:20:22.035Z,13.10
2022-10-05T09:23:09.851Z,13.40
2022-10-05T09:25:58.684Z,13.80
2022-10-05T09:28:33.365Z,13.80
2022-10-05T09:31:19.302Z,13.90
2022-10-05T09:34:32.223Z,13.90
2022-10-05T09:37:39.936Z,14.30
2022-10-05T09:41:12.540Z,15.10
2022-10-05T09:44:13.660Z,15.70
2022-10-05T09:47:12.001Z,16.20
2022-10-05T09:49:59.193Z,16.40
2022-10-05T09:52:57.150Z,16.60
2022-10-05T09:55:52.115Z,16.80
2022-10-05T09:58:36.626Z,16.90
2022-10-05T10:01:33.288Z,17.00
2022-10-05T10:04:40.303Z,17.00
2022-10-05T10:07:50.164Z,17.00
2022-10-05T10:10:44.135Z,17.00
2022-10-05T10:13:55.684Z,17.00
2022-10-05T10:16:50.343Z,17.10
2022-10-05T10:19:33.634Z,17.30
2022-10-05T10:22:20.827Z,17.40
2022-10-05T10:25:35.940Z,17.70
2022-10-05T10:28:29.351Z,17.90
2022-10-05T10:31:20.248Z,17.90
2022-10-05T10:34:19.321Z,18.00
2022-10-05T10:37:08.226Z,18.20
2022-10-05T10:39:52.037Z,18.30
2022-10-05T10:42:37.848Z,18.20
2022-10-05T10:45:19.251Z,18.20
2022-10-05T10:48:00.236Z,18.40
2022-10-05T10:50:56.383Z,18.50
2022-10-05T10:53:37.103Z,18.50
2022-10-05T10:56:34.186Z,18.60
2022-10-05T10:59:41.546Z,18.90
2022-10-05T11:02:43.686Z,19.00
2022-10-05T11:05:48.832Z,19.20
2022-10-05T11:08:48.880Z,19.30
2022-10-05T11:11:53.475Z,19.40
2022-10-05T11:14:36.547Z,19.50
2022-10-05T11:17:26.253Z,19.60
2022-10-05T11:20:23.083Z,19.70
2022-10-05T11:22:59.794Z,20.00
2022-10-05T11:25:48.296Z,20.10
2022-10-05T11:28:54.703Z,20.20
2022-10-05T11:31:37.497Z,20.30
2022-10-05T11:34:33.350Z,20.30
2022-10-05T11:37:18.109Z,20.40
2022-10-05T11:40:01.717Z,20.60
2022-10-05T11:43:00.613Z,20.90
2022-10-05T11:45:37.878Z,21.00
2022-10-05T11:48:26.350Z,21.10
2022-10-05T11:51:25.221Z,21.20
2022-10-05T11:54:07.876Z,21.50
2022-10-05T11:57:00.330Z,21.70
2022-10-05T11:59:36.062Z,21.80
2022-10-05T12:02:17.530Z,21.90
2022-10-05T12:04:53.158Z,21.80
2022-10-05T12:07:32.361Z,22.00
2022-10-05T12:10:23.330Z,22.10
2022-10-05T12:13:08.540Z,22.30
2022-10-05T12:15:45.775Z,22.30
2022-10-05T12:18:19.189Z,22.40
2022-10-05T12:20:52.248Z,22.30
2022-10-05T12:23:25.755Z,22.30
2022-10-05T12:25:59.312Z,22.30
2022-10-05T12:28:34.306Z,22.30
2022-10-05T12:31:17.262Z,22.30
2022-10-05T12:33:50.901Z,22.40
2022-10-05T12:36:26.339Z,22.60
2022-10-05T12:39:03.409Z,22.70
2022-10-05T12:41:36.548Z,22.80
2022-10-05T12:44:17.364Z,22.80
2022-10-05T12:46:55.195Z,23.00
2022-10-05T12:49:40.965Z,23.00
2022-10-05T12:52:15.606Z,23.30
2022-10-05T12:54:50.277Z,23.30
2022-10-05T12:57:29.556Z,23.30
2022-10-05T13:00:04.067Z,23.20
2022-10-05T13:02:42.139Z,23.20
2022-10-05T13:05:26.304Z,23.30
2022-10-05T13:08:06.463Z,23.40
2022-10-05T13:10:39.043Z,23.40
2022-10-05T13:13:24.782Z,23.40
2022-10-05T13:16:00.439Z,23.50
2022-10-05T13:18:41.797Z,23.50
2022-10-05T13:21:14.750Z,23.60
2022-10-05T13:23:57.125Z,23.80
2022-10-05T13:26:29.370Z,23.80
2022-10-05T13:29:03.598Z,23.90
2022-10-05T13:31:37.056Z,24.00
2022-10-05T13:34:22.225Z,24.10
2022-10-05T13:37:02.590Z,24.10
2022-10-05T13:39:45.169Z,24.20
2022-10-05T13:42:17.566Z,24.30
2022-10-05T13:44:51.498Z,24.40
2022-10-05T13:47:28.427Z,24.40
2022-10-05T13:50:01.428Z,24.50
2022-10-05T13:52:38.002Z,24.60
2022-10-05T13:55:17.793Z,24.60
2022-10-05T13:57:56.397Z,24.60
2022-10-05T14:00:27.102Z,24.60
2022-10-05T14:02:57.515Z,24.60
2022-10-05T14:05:28.844Z,24.60
2022-10-05T14:07:58.642Z,24.40
2022-10-05T14:10:48.271Z,24.40
2022-10-05T14:13:26.590Z,24.40
2022-10-05T14:16:21.525Z,24.40
2022-10-05T14:18:55.754Z,24.30
2022-10-05T14:21:26.275Z,24.20
2022-10-05T14:23:56.351Z,24.10
2022-10-05T14:26:36.413Z,24.00
2022-10-05T14:29:18.062Z,23.90
2022-10-05T14:31:52.268Z,23.90
2022-10-05T14:34:45.056Z,23.90
2022-10-05T14:37:22.807Z,23.80
2022-10-05T14:39:52.910Z,23.80
2022-10-05T14:42:22.095Z,23.80
2022-10-05T14:45:00.334Z,23.60
2022-10-05T14:47:31.471Z,23.60
2022-10-05T14:50:13.888Z,23.50
2022-10-05T14:52:51.656Z,23.40
2022-10-05T14:55:31.130Z,23.20
2022-10-05T14:58:11.440Z,23.20
2022-10-05T15:00:48.993Z,23.10
2022-10-05T15:03:27.257Z,23.00
2022-10-05T15:05:59.832Z,22.90
2022-10-05T15:09:09.149Z,22.90
2022-10-05T15:11:50.276Z,22.90
2022-10-05T15:14:22.591Z,22.90
2022-10-05T15:16:53.751Z,22.90
2022-10-05T15:19:27.225Z,22.80
2022-10-05T15:22:12.635Z,22.80
2022-10-05T15:24:46.602Z,22.70
2022-10-05T15:27:25.519Z,22.70
2022-10-05T15:30:05.381Z,22.60
2022-10-05T15:32:44.100Z,22.60
2022-10-05T15:35:43.960Z,22.60
2022-10-05T15:38:21.657Z,22.50
2022-10-05T15:41:07.557Z,22.50
2022-10-05T15:43:46.817Z,22.50
2022-10-05T15:46:23.123Z,22.40
2022-10-05T15:49:00.587Z,22.40
2022-10-05T15:51:42.532Z,22.30
2022-10-05T15:54:37.252Z,22.30
2022-10-05T15:57:14.569Z,22.30
2022-10-05T15:59:53.884Z,22.20
2022-10-05T16:02:29.755Z,22.10
2022-10-05T16:05:08.581Z,22.10
2022-10-05T16:08:00.315Z,22.10
2022-10-05T16:10:28.300Z,22.00
2022-10-05T16:13:13.761Z,22.00
2022-10-05T16:15:48.590Z,21.90
2022-10-05T16:18:41.060Z,21.90
2022-10-05T16:21:19.079Z,21.90
2022-10-05T16:24:04.963Z,21.80
2022-10-05T16:26:47.476Z,21.70
2022-10-05T16:29:24.713Z,21.70
2022-10-05T16:31:58.212Z,21.60
2022-10-05T16:34:40.453Z,21.60
2022-10-05T16:37:17.799Z,21.60
2022-10-05T16:39:56.264Z,21.50
2022-10-05T16:42:36.161Z,21.50
2022-10-05T16:45:24.385Z,21.40
2022-10-05T16:47:58.898Z,21.30
2022-10-05T16:50:32.907Z,21.20
2022-10-05T16:53:05.825Z,21.10
2022-10-05T16:55:38.434Z,20.90
2022-10-05T16:58:14.224Z,20.80
2022-10-05T17:01:01.834Z,20.80
2022-10-05T17:03:40.678Z,20.70
2022-10-05T17:06:47.957Z,20.60
2022-10-05T17:09:37.006Z,20.50
2022-10-05T17:12:18.927Z,20.40
2022-10-05T17:15:00.538Z,20.40
2022-10-05T17:17:39.477Z,20.40
2022-10-05T17:20:23.590Z,20.30
2022-10-05T17:22:53.575Z,20.30
2022-10-05T17:25:32.090Z,20.30
2022-10-05T17:28:20.934Z,20.20
2022-10-05T17:30:53.694Z,20.20
2022-10-05T17:33:26.319Z,20.20
2022-10-05T17:36:18.775Z,20.20
2022-10-05T17:38:49.734Z,20.20
2022-10-05T17:41:23.417Z,20.20
2022-10-05T17:44:26.195Z,20.20
2022-10-05T17:46:56.251Z,20.20
2022-10-05T17:50:13.701Z,20.20
2022-10-05T17:53:02.255Z,20.10
2022-10-05T17:56:01.778Z,20.10
2022-10-05T17:59:04.206Z,20.00
2022-10-05T18:01:34.859Z,20.00
2022-10-05T18:04:33.596Z,20.00
2022-10-05T18:07:05.069Z,20.00
2022-10-05T18:09:51.956Z,19.80
2022-10-05T18:12:41.960Z,19.80
2022-10-05T18:15:45.903Z,19.80
2022-10-05T18:18:38.653Z,19.70
2022-10-05T18:21:35.493Z,19.60
2022-10-05T18:24:52.975Z,19.60
2022-10-05T18:27:56.289Z,19.60
2022-10-05T18:30:25.708Z,19.60
2022-10-05T18:33:29.860Z,19.50
2022-10-05T18:36:06.912Z,19.40
2022-10-05T18:38:45.432Z,19.40
2022-10-05T18:41:22.511Z,19.40
2022-10-05T18:44:02.129Z,19.30
2022-10-05T18:46:40.805Z,19.20
2022-10-05T18:49:25.900Z,19.20
2022-10-05T18:52:01.921Z,19.20
2022-10-05T18:54:48.755Z,19.00
2022-10-05T18:57:38.763Z,19.00
2022-10-05T19:00:16.429Z,19.00
2022-10-05T19:02:49.154Z,19.00
2022-10-05T19:05:48.053Z,19.00
2022-10-05T19:08:25.430Z,19.00
2022-10-05T19:10:58.380Z,18.90
2022-10-05T19:13:38.638Z,19.00
2022-10-05T19:16:31.366Z,19.00
2022-10-05T19:19:10.836Z,18.90
2022-10-05T19:21:47.697Z,18.90
2022-10-05T19:24:29.559Z,18.70
2022-10-05T19:27:07.430Z,18.60
2022-10-05T19:29:50.081Z,18.60
2022-10-05T19:32:24.418Z,18.50
2022-10-05T19:35:07.091Z,18.50
2022-10-05T19:37:46.324Z,18.40
2022-10-05T19:40:21.297Z,18.40
2022-10-05T19:43:08.780Z,18.30
2022-10-05T19:45:44.056Z,18.20
2022-10-05T19:48:22.673Z,18.10
2022-10-05T19:50:55.525Z,18.00
2022-10-05T19:53:27.708Z,17.90
2022-10-05T19:55:56.273Z,17.90
2022-10-05T19:58:27.905Z,17.80
2022-10-05T20:00:58.863Z,17.70
2022-10-05T20:03:29.363Z,17.70
2022-10-05T20:05:58.601Z,17.60
2022-10-05T20:08:28.460Z,17.50
2022-10-05T20:11:08.729Z,17.40
2022-10-05T20:13:39.861Z,17.30
2022-10-05T20:16:27.241Z,17.20
2022-10-05T20:19:12.861Z,17.00
2022-10-05T20:21:51.657Z,16.90
2022-10-05T20:24:21.246Z,16.80
2022-10-05T20:27:05.216Z,16.60
2022-10-05T20:29:36.463Z,16.50
2022-10-05T20:32:08.163Z,16.40
2022-10-05T20:34:37.252Z,16.30
2022-10-05T20:37:05.436Z,16.20
2022-10-05T20:39:33.291Z,16.10
2022-10-05T20:42:01.239Z,15.90
2022-10-05T20:44:29.105Z,15.80
2022-10-05T20:46:58.602Z,15.70
2022-10-05T20:49:27.073Z,15.60
2022-10-05T20:51:55.922Z,15.60
2022-10-05T20:54:24.015Z,15.50
2022-10-05T20:56:53.045Z,15.50
2022-10-05T20:59:20.909Z,15.40
2022-10-05T21:01:49.004Z,15.30
2022-10-05T21:04:19.996Z,15.30
2022-10-05T21:06:48.580Z,15.30
2022-10-05T21:09:21.261Z,15.20
2022-10-05T21:11:52.778Z,15.20
2022-10-05T21:14:20.691Z,15.20
2022-10-05T21:16:48.599Z,15.20
2022-10-05T21:19:17.914Z,15.20
2022-10-05T21:21:47.149Z,15.20
2022-10-05T21:24:16.222Z,15.30
2022-10-05T21:26:45.116Z,15.20
2022-10-05T21:29:13.355Z,15.20
2022-10-05T21:31:41.319Z,15.30
2022-10-05T21:34:09.244Z,15.40
2022-10-05T21:36:38.418Z,15.50
2022-10-05T21:39:06.288Z,15.60
2022-10-05T21:41:34.178Z,15.80
2022-10-05T21:44:02.304Z,16.00
2022-10-05T21:46:31.517Z,16.20
2022-10-05T21:48:59.583Z,16.40
2022-10-05T21:51:28.265Z,16.60
2022-10-05T21:54:02.629Z,16.70
2022-10-05T21:56:34.732Z,16.80
2022-10-05T21:59:03.923Z,16.90
2022-10-05T22:01:31.830Z,17.00
2022-10-05T22:03:59.738Z,17.10
2022-10-05T22:06:27.552Z,17.10
2022-10-05T22:08:56.779Z,17.20
2022-10-05T22:11:24.765Z,17.20
2022-10-05T22:13:54.003Z,17.20
2022-10-05T22:16:24.571Z,17.20
2022-10-05T22:18:53.582Z,17.20
2022-10-05T22:21:22.002Z,17.20
2022-10-05T22:23:49.900Z,17.10
2022-10-05T22:26:22.116Z,17.10
2022-10-05T22:28:52.388Z,17.00
2022-10-05T22:31:20.230Z,17.00
2022-10-05T22:33:48.191Z,17.00
2022-10-05T22:36:16.692Z,16.90
2022-10-05T22:38:44.796Z,16.80
2022-10-05T22:41:13.256Z,16.70
2022-10-05T22:43:42.428Z,16.60
2022-10-05T22:46:12.066Z,16.50
2022-10-05T22:48:40.620Z,16.40
2022-10-05T22:51:09.178Z,16.40
2022-10-05T22:53:37.411Z,16.20
2022-10-05T22:56:06.864Z,16.20
2022-10-05T22:58:34.902Z,16.20
2022-10-05T23:01:05.363Z,16.20
2022-10-05T23:03:33.942Z,16.20
2022-10-05T23:06:04.267Z,16.20
2022-10-05T23:08:32.782Z,16.30
2022-10-05T23:11:04.145Z,16.40
2022-10-05T23:13:32.321Z,16.40
2022-10-05T23:16:08.369Z,16.40
2022-10-05T23:18:36.403Z,16.40
2022-10-05T23:21:05.631Z,16.40
2022-10-05T23:23:33.797Z,16.40
2022-10-05T23:26:02.628Z,16.40
2022-10-05T23:28:31.392Z,16.40
2022-10-05T23:31:00.359Z,16.40
2022-10-05T23:33:29.989Z,16.40
2022-10-05T23:36:01.458Z,16.40
2022-10-05T23:38:30.751Z,16.30
2022-10-05T23:40:59.812Z,16.20
2022-10-05T23:43:28.290Z,16.10
2022-10-05T23:45:56.730Z,16.00
2022-10-05T23:48:25.076Z,15.90
2022-10-05T23:50:55.647Z,15.90
2022-10-05T23:53:23.986Z,15.90
2022-10-05T23:55:52.844Z,15.90
2022-10-05T23:58:21.560Z,15.80
